sensor_id;sensor_type;location;lat;lon;timestamp;P1;durP1;ratioP1;P2;durP2;ratioP2
31818;SDS011;18384;48.860;9.188;2022-12-07T00:01:15;13.35;;;6.80;;
31818;SDS011;18384;48.860;9.188;2022-12-07T00:03:44;10.95;;;7.50;;
31818;SDS011;18384;48.860;9.188;2022-12-07T00:06:13;11.80;;;7.03;;
31818;SDS011;18384;48.860;9.188;2022-12-07T00:08:40;14.85;;;8.07;;
31818;SDS011;18384;48.860;9.188;2022-12-07T00:11:14;13.88;;;7.45;;
31818;SDS011;18384;48.860;9.188;2022-12-07T00:13:44;12.93;;;7.72;;
31818;SDS011;18384;48.860;9.188;2022-12-07T00:16:13;15.55;;;7.82;;
31818;SDS011;18384;48.860;9.188;2022-12-07T00:18:42;13.20;;;7.93;;
31818;SDS011;18384;48.860;9.188;2022-12-07T00:21:10;12.98;;;7.80;;
31818;SDS011;18384;48.860;9.188;2022-12-07T00:23:43;10.68;;;7.37;;
31818;SDS011;18384;48.860;9.188;2022-12-07T00:26:17;13.85;;;8.07;;
31818;SDS011;18384;48.860;9.188;2022-12-07T00:28:49;13.55;;;7.37;;
31818;SDS011;18384;48.860;9.188;2022-12-07T00:31:21;11.32;;;7.68;;
31818;SDS011;18384;48.860;9.188;2022-12-07T00:33:50;13.60;;;8.32;;
31818;SDS011;18384;48.860;9.188;2022-12-07T00:36:18;11.82;;;7.43;;
31818;SDS011;18384;48.860;9.188;2022-12-07T00:38:48;14.13;;;7.32;;
31818;SDS011;18384;48.860;9.188;2022-12-07T00:41:19;15.95;;;8.20;;
31818;SDS011;18384;48.860;9.188;2022-12-07T00:43:47;12.45;;;7.15;;
31818;SDS011;18384;48.860;9.188;2022-12-07T00:46:15;13.90;;;7.45;;
31818;SDS011;18384;48.860;9.188;2022-12-07T00:48:42;13.70;;;7.47;;
31818;SDS011;18384;48.860;9.188;2022-12-07T00:51:12;13.60;;;8.70;;
31818;SDS011;18384;48.860;9.188;2022-12-07T00:53:40;12.63;;;7.62;;
31818;SDS011;18384;48.860;9.188;2022-12-07T00:56:17;16.62;;;7.35;;
31818;SDS011;18384;48.860;9.188;2022-12-07T00:58:51;15.85;;;8.20;;
31818;SDS011;18384;48.860;9.188;2022-12-07T01:01:23;13.82;;;8.60;;
31818;SDS011;18384;48.860;9.188;2022-12-07T01:03:51;12.27;;;7.37;;
31818;SDS011;18384;48.860;9.188;2022-12-07T01:06:18;13.68;;;8.20;;
31818;SDS011;18384;48.860;9.188;2022-12-07T01:08:46;16.95;;;8.30;;
31818;SDS011;18384;48.860;9.188;2022-12-07T01:11:14;12.25;;;8.18;;
31818;SDS011;18384;48.860;9.188;2022-12-07T01:13:43;12.13;;;7.70;;
31818;SDS011;18384;48.860;9.188;2022-12-07T01:16:11;12.13;;;8.50;;
31818;SDS011;18384;48.860;9.188;2022-12-07T01:18:39;16.25;;;7.45;;
31818;SDS011;18384;48.860;9.188;2022-12-07T01:21:11;15.80;;;8.98;;
31818;SDS011;18384;48.860;9.188;2022-12-07T01:26:13;12.20;;;8.18;;
31818;SDS011;18384;48.860;9.188;2022-12-07T01:28:42;12.93;;;7.85;;
31818;SDS011;18384;48.860;9.188;2022-12-07T01:33:37;12.65;;;8.05;;
31818;SDS011;18384;48.860;9.188;2022-12-07T01:36:08;13.10;;;8.00;;
31818;SDS011;18384;48.860;9.188;2022-12-07T01:38:41;13.00;;;8.27;;
31818;SDS011;18384;48.860;9.188;2022-12-07T01:41:08;12.25;;;8.73;;
31818;SDS011;18384;48.860;9.188;2022-12-07T01:43:35;11.27;;;7.68;;
31818;SDS011;18384;48.860;9.188;2022-12-07T01:48:32;13.32;;;7.65;;
31818;SDS011;18384;48.860;9.188;2022-12-07T01:51:06;16.00;;;8.55;;
31818;SDS011;18384;48.860;9.188;2022-12-07T01:53:37;14.85;;;8.98;;
31818;SDS011;18384;48.860;9.188;2022-12-07T01:56:08;13.48;;;8.18;;
31818;SDS011;18384;48.860;9.188;2022-12-07T01:58:40;14.30;;;8.48;;
31818;SDS011;18384;48.860;9.188;2022-12-07T02:03:34;16.65;;;8.55;;
31818;SDS011;18384;48.860;9.188;2022-12-07T02:06:07;11.02;;;7.90;;
31818;SDS011;18384;48.860;9.188;2022-12-07T02:08:36;14.48;;;8.15;;
31818;SDS011;18384;48.860;9.188;2022-12-07T02:11:02;15.20;;;8.18;;
31818;SDS011;18384;48.860;9.188;2022-12-07T02:13:31;12.82;;;8.15;;
31818;SDS011;18384;48.860;9.188;2022-12-07T02:27:59;15.65;;;8.68;;
31818;SDS011;18384;48.860;9.188;2022-12-07T02:30:45;13.85;;;8.50;;
31818;SDS011;18384;48.860;9.188;2022-12-07T02:33:16;13.20;;;8.30;;
31818;SDS011;18384;48.860;9.188;2022-12-07T02:36:01;13.02;;;7.70;;
31818;SDS011;18384;48.860;9.188;2022-12-07T02:38:51;12.07;;;7.40;;
31818;SDS011;18384;48.860;9.188;2022-12-07T02:43:45;12.50;;;8.20;;
31818;SDS011;18384;48.860;9.188;2022-12-07T02:46:20;11.85;;;7.68;;
31818;SDS011;18384;48.860;9.188;2022-12-07T02:48:51;11.10;;;7.62;;
31818;SDS011;18384;48.860;9.188;2022-12-07T02:51:18;13.27;;;7.60;;
31818;SDS011;18384;48.860;9.188;2022-12-07T02:53:44;12.20;;;7.18;;
31818;SDS011;18384;48.860;9.188;2022-12-07T02:56:30;15.43;;;8.25;;
31818;SDS011;18384;48.860;9.188;2022-12-07T03:00:45;10.88;;;6.93;;
31818;SDS011;18384;48.860;9.188;2022-12-07T03:03:31;11.48;;;7.37;;
31818;SDS011;18384;48.860;9.188;2022-12-07T03:06:10;12.35;;;7.70;;
31818;SDS011;18384;48.860;9.188;2022-12-07T03:11:47;13.27;;;7.45;;
31818;SDS011;18384;48.860;9.188;2022-12-07T03:14:25;14.60;;;7.57;;
31818;SDS011;18384;48.860;9.188;2022-12-07T03:17:05;12.55;;;7.40;;
31818;SDS011;18384;48.860;9.188;2022-12-07T03:19:43;30.37;;;7.57;;
31818;SDS011;18384;48.860;9.188;2022-12-07T03:22:12;13.25;;;7.75;;
31818;SDS011;18384;48.860;9.188;2022-12-07T03:24:44;12.73;;;7.97;;
31818;SDS011;18384;48.860;9.188;2022-12-07T03:27:20;11.85;;;7.82;;
31818;SDS011;18384;48.860;9.188;2022-12-07T03:30:07;11.45;;;7.30;;
31818;SDS011;18384;48.860;9.188;2022-12-07T03:32:41;14.10;;;8.55;;
31818;SDS011;18384;48.860;9.188;2022-12-07T03:35:25;11.95;;;7.60;;
31818;SDS011;18384;48.860;9.188;2022-12-07T03:38:15;15.23;;;7.82;;
31818;SDS011;18384;48.860;9.188;2022-12-07T03:41:00;12.30;;;7.87;;
31818;SDS011;18384;48.860;9.188;2022-12-07T03:43:34;14.80;;;7.57;;
31818;SDS011;18384;48.860;9.188;2022-12-07T03:49:07;11.35;;;7.40;;
31818;SDS011;18384;48.860;9.188;2022-12-07T03:52:02;11.27;;;7.78;;
31818;SDS011;18384;48.860;9.188;2022-12-07T03:54:56;12.63;;;7.35;;
31818;SDS011;18384;48.860;9.188;2022-12-07T03:57:44;12.25;;;7.80;;
31818;SDS011;18384;48.860;9.188;2022-12-07T04:00:15;13.88;;;8.05;;
31818;SDS011;18384;48.860;9.188;2022-12-07T04:02:41;13.30;;;7.57;;
31818;SDS011;18384;48.860;9.188;2022-12-07T04:05:09;13.50;;;8.50;;
31818;SDS011;18384;48.860;9.188;2022-12-07T04:07:35;13.45;;;8.25;;
31818;SDS011;18384;48.860;9.188;2022-12-07T04:10:02;12.48;;;7.80;;
31818;SDS011;18384;48.860;9.188;2022-12-07T04:12:29;12.10;;;8.25;;
31818;SDS011;18384;48.860;9.188;2022-12-07T04:14:55;13.15;;;8.30;;
31818;SDS011;18384;48.860;9.188;2022-12-07T04:17:21;14.70;;;9.10;;
31818;SDS011;18384;48.860;9.188;2022-12-07T04:19:47;14.40;;;9.07;;
31818;SDS011;18384;48.860;9.188;2022-12-07T04:22:13;17.27;;;8.85;;
31818;SDS011;18384;48.860;9.188;2022-12-07T04:24:39;16.48;;;9.30;;
31818;SDS011;18384;48.860;9.188;2022-12-07T04:27:05;14.65;;;9.13;;
31818;SDS011;18384;48.860;9.188;2022-12-07T04:29:31;15.52;;;8.93;;
31818;SDS011;18384;48.860;9.188;2022-12-07T04:31:57;16.98;;;8.88;;
31818;SDS011;18384;48.860;9.188;2022-12-07T04:34:24;13.27;;;9.05;;
31818;SDS011;18384;48.860;9.188;2022-12-07T04:36:50;11.98;;;8.32;;
31818;SDS011;18384;48.860;9.188;2022-12-07T04:39:26;13.85;;;8.60;;
31818;SDS011;18384;48.860;9.188;2022-12-07T04:41:55;12.23;;;7.95;;
31818;SDS011;18384;48.860;9.188;2022-12-07T04:44:22;12.43;;;8.27;;
31818;SDS011;18384;48.860;9.188;2022-12-07T04:46:50;13.05;;;8.43;;
31818;SDS011;18384;48.860;9.188;2022-12-07T04:49:17;13.77;;;8.18;;
31818;SDS011;18384;48.860;9.188;2022-12-07T04:51:44;14.43;;;8.23;;
31818;SDS011;18384;48.860;9.188;2022-12-07T04:54:11;13.65;;;8.05;;
31818;SDS011;18384;48.860;9.188;2022-12-07T04:56:38;16.00;;;7.70;;
31818;SDS011;18384;48.860;9.188;2022-12-07T04:59:04;13.90;;;8.35;;
31818;SDS011;18384;48.860;9.188;2022-12-07T05:01:31;14.15;;;9.10;;
31818;SDS011;18384;48.860;9.188;2022-12-07T05:03:58;14.25;;;7.80;;
31818;SDS011;18384;48.860;9.188;2022-12-07T05:06:24;18.67;;;8.77;;
31818;SDS011;18384;48.860;9.188;2022-12-07T05:08:50;16.98;;;8.95;;
31818;SDS011;18384;48.860;9.188;2022-12-07T05:11:16;14.43;;;8.43;;
31818;SDS011;18384;48.860;9.188;2022-12-07T05:14:02;13.30;;;8.02;;
31818;SDS011;18384;48.860;9.188;2022-12-07T05:16:30;13.90;;;7.55;;
31818;SDS011;18384;48.860;9.188;2022-12-07T05:18:56;11.40;;;7.45;;
31818;SDS011;18384;48.860;9.188;2022-12-07T05:23:48;14.43;;;8.30;;
31818;SDS011;18384;48.860;9.188;2022-12-07T05:28:41;15.52;;;8.43;;
31818;SDS011;18384;48.860;9.188;2022-12-07T05:31:07;14.95;;;8.52;;
31818;SDS011;18384;48.860;9.188;2022-12-07T05:33:33;15.10;;;9.02;;
31818;SDS011;18384;48.860;9.188;2022-12-07T05:35:59;26.70;;;9.93;;
31818;SDS011;18384;48.860;9.188;2022-12-07T05:38:31;15.73;;;9.13;;
31818;SDS011;18384;48.860;9.188;2022-12-07T05:41:02;13.68;;;8.85;;
31818;SDS011;18384;48.860;9.188;2022-12-07T05:43:30;14.55;;;9.40;;
31818;SDS011;18384;48.860;9.188;2022-12-07T05:45:58;17.10;;;10.43;;
31818;SDS011;18384;48.860;9.188;2022-12-07T05:48:25;18.02;;;10.20;;
31818;SDS011;18384;48.860;9.188;2022-12-07T05:50:51;15.38;;;9.75;;
31818;SDS011;18384;48.860;9.188;2022-12-07T05:55:44;14.48;;;9.27;;
31818;SDS011;18384;48.860;9.188;2022-12-07T05:58:10;17.45;;;9.13;;
31818;SDS011;18384;48.860;9.188;2022-12-07T06:00:55;16.33;;;9.13;;
31818;SDS011;18384;48.860;9.188;2022-12-07T06:03:21;16.20;;;8.70;;
31818;SDS011;18384;48.860;9.188;2022-12-07T06:05:47;14.45;;;8.65;;
31818;SDS011;18384;48.860;9.188;2022-12-07T06:08:13;16.37;;;8.60;;
31818;SDS011;18384;48.860;9.188;2022-12-07T06:10:42;15.05;;;7.85;;
31818;SDS011;18384;48.860;9.188;2022-12-07T06:13:08;14.43;;;9.18;;
31818;SDS011;18384;48.860;9.188;2022-12-07T06:15:35;17.95;;;8.32;;
31818;SDS011;18384;48.860;9.188;2022-12-07T06:18:02;14.15;;;8.52;;
31818;SDS011;18384;48.860;9.188;2022-12-07T06:22:54;11.38;;;7.22;;
31818;SDS011;18384;48.860;9.188;2022-12-07T06:25:20;14.68;;;8.18;;
31818;SDS011;18384;48.860;9.188;2022-12-07T06:27:46;16.05;;;7.87;;
31818;SDS011;18384;48.860;9.188;2022-12-07T06:30:12;12.90;;;7.68;;
31818;SDS011;18384;48.860;9.188;2022-12-07T06:32:38;10.65;;;6.93;;
31818;SDS011;18384;48.860;9.188;2022-12-07T06:35:05;15.48;;;7.18;;
31818;SDS011;18384;48.860;9.188;2022-12-07T06:37:31;14.60;;;8.20;;
31818;SDS011;18384;48.860;9.188;2022-12-07T06:39:57;10.43;;;7.15;;
31818;SDS011;18384;48.860;9.188;2022-12-07T06:42:23;17.77;;;7.20;;
31818;SDS011;18384;48.860;9.188;2022-12-07T06:44:49;13.95;;;7.80;;
31818;SDS011;18384;48.860;9.188;2022-12-07T06:47:15;16.35;;;6.87;;
31818;SDS011;18384;48.860;9.188;2022-12-07T06:49:41;9.88;;;6.68;;
31818;SDS011;18384;48.860;9.188;2022-12-07T06:52:08;12.07;;;6.10;;
31818;SDS011;18384;48.860;9.188;2022-12-07T06:54:34;10.60;;;6.53;;
31818;SDS011;18384;48.860;9.188;2022-12-07T06:57:00;16.60;;;5.62;;
31818;SDS011;18384;48.860;9.188;2022-12-07T06:59:26;9.05;;;6.00;;
31818;SDS011;18384;48.860;9.188;2022-12-07T07:01:52;13.15;;;6.28;;
31818;SDS011;18384;48.860;9.188;2022-12-07T07:04:18;9.02;;;5.70;;
31818;SDS011;18384;48.860;9.188;2022-12-07T07:06:44;11.45;;;6.55;;
31818;SDS011;18384;48.860;9.188;2022-12-07T07:11:37;10.77;;;6.20;;
31818;SDS011;18384;48.860;9.188;2022-12-07T07:14:03;13.13;;;6.10;;
31818;SDS011;18384;48.860;9.188;2022-12-07T07:16:29;10.32;;;6.22;;
31818;SDS011;18384;48.860;9.188;2022-12-07T07:18:56;10.15;;;5.90;;
31818;SDS011;18384;48.860;9.188;2022-12-07T07:21:22;11.93;;;6.03;;
31818;SDS011;18384;48.860;9.188;2022-12-07T07:23:48;9.90;;;5.75;;
31818;SDS011;18384;48.860;9.188;2022-12-07T07:26:14;11.25;;;5.95;;
31818;SDS011;18384;48.860;9.188;2022-12-07T07:28:41;10.05;;;6.10;;
31818;SDS011;18384;48.860;9.188;2022-12-07T07:31:07;8.85;;;5.62;;
31818;SDS011;18384;48.860;9.188;2022-12-07T07:33:33;14.00;;;6.15;;
31818;SDS011;18384;48.860;9.188;2022-12-07T07:35:59;11.05;;;6.18;;
31818;SDS011;18384;48.860;9.188;2022-12-07T07:38:25;11.90;;;6.72;;
31818;SDS011;18384;48.860;9.188;2022-12-07T07:40:51;9.05;;;6.25;;
31818;SDS011;18384;48.860;9.188;2022-12-07T07:43:17;15.30;;;6.30;;
31818;SDS011;18384;48.860;9.188;2022-12-07T07:45:44;8.68;;;5.78;;
31818;SDS011;18384;48.860;9.188;2022-12-07T07:48:10;11.07;;;6.62;;
31818;SDS011;18384;48.860;9.188;2022-12-07T07:50:36;12.02;;;6.12;;
31818;SDS011;18384;48.860;9.188;2022-12-07T07:53:02;10.45;;;6.00;;
31818;SDS011;18384;48.860;9.188;2022-12-07T07:55:28;9.27;;;5.53;;
31818;SDS011;18384;48.860;9.188;2022-12-07T07:57:54;16.87;;;5.82;;
31818;SDS011;18384;48.860;9.188;2022-12-07T08:00:21;9.80;;;6.22;;
31818;SDS011;18384;48.860;9.188;2022-12-07T08:02:47;11.77;;;5.65;;
31818;SDS011;18384;48.860;9.188;2022-12-07T08:05:13;10.02;;;5.43;;
31818;SDS011;18384;48.860;9.188;2022-12-07T08:07:41;13.18;;;5.57;;
31818;SDS011;18384;48.860;9.188;2022-12-07T08:10:09;10.00;;;5.87;;
31818;SDS011;18384;48.860;9.188;2022-12-07T08:12:38;11.73;;;4.82;;
31818;SDS011;18384;48.860;9.188;2022-12-07T08:18:03;8.73;;;5.32;;
31818;SDS011;18384;48.860;9.188;2022-12-07T08:22:00;10.73;;;5.28;;
31818;SDS011;18384;48.860;9.188;2022-12-07T08:24:27;9.85;;;5.70;;
31818;SDS011;18384;48.860;9.188;2022-12-07T08:26:53;8.18;;;5.05;;
31818;SDS011;18384;48.860;9.188;2022-12-07T08:29:19;7.45;;;4.95;;
31818;SDS011;18384;48.860;9.188;2022-12-07T08:31:46;12.48;;;5.40;;
31818;SDS011;18384;48.860;9.188;2022-12-07T08:34:12;11.82;;;6.30;;
31818;SDS011;18384;48.860;9.188;2022-12-07T08:39:04;9.18;;;5.55;;
31818;SDS011;18384;48.860;9.188;2022-12-07T08:41:31;16.52;;;6.30;;
31818;SDS011;18384;48.860;9.188;2022-12-07T08:43:57;12.35;;;5.57;;
31818;SDS011;18384;48.860;9.188;2022-12-07T08:46:29;9.50;;;5.97;;
31818;SDS011;18384;48.860;9.188;2022-12-07T08:49:10;10.05;;;5.65;;
31818;SDS011;18384;48.860;9.188;2022-12-07T08:51:47;9.90;;;5.78;;
31818;SDS011;18384;48.860;9.188;2022-12-07T08:54:14;15.55;;;5.43;;
31818;SDS011;18384;48.860;9.188;2022-12-07T08:56:42;7.72;;;5.20;;
31818;SDS011;18384;48.860;9.188;2022-12-07T08:59:10;10.68;;;5.15;;
31818;SDS011;18384;48.860;9.188;2022-12-07T09:01:40;8.55;;;5.25;;
31818;SDS011;18384;48.860;9.188;2022-12-07T09:04:06;7.93;;;5.50;;
31818;SDS011;18384;48.860;9.188;2022-12-07T09:06:32;10.00;;;5.82;;
31818;SDS011;18384;48.860;9.188;2022-12-07T09:08:59;9.98;;;5.22;;
31818;SDS011;18384;48.860;9.188;2022-12-07T09:11:26;10.05;;;5.47;;
31818;SDS011;18384;48.860;9.188;2022-12-07T09:13:53;14.18;;;5.57;;
31818;SDS011;18384;48.860;9.188;2022-12-07T09:18:45;8.18;;;5.18;;
31818;SDS011;18384;48.860;9.188;2022-12-07T09:21:11;11.73;;;6.05;;
31818;SDS011;18384;48.860;9.188;2022-12-07T09:23:37;9.63;;;5.37;;
31818;SDS011;18384;48.860;9.188;2022-12-07T09:26:04;7.78;;;5.07;;
31818;SDS011;18384;48.860;9.188;2022-12-07T09:28:30;9.90;;;4.70;;
31818;SDS011;18384;48.860;9.188;2022-12-07T09:30:57;10.60;;;5.72;;
31818;SDS011;18384;48.860;9.188;2022-12-07T09:33:23;8.32;;;5.40;;
31818;SDS011;18384;48.860;9.188;2022-12-07T09:35:49;18.67;;;6.75;;
31818;SDS011;18384;48.860;9.188;2022-12-07T09:38:19;17.87;;;5.15;;
31818;SDS011;18384;48.860;9.188;2022-12-07T09:40:46;11.48;;;4.65;;
31818;SDS011;18384;48.860;9.188;2022-12-07T09:43:14;6.05;;;3.95;;
31818;SDS011;18384;48.860;9.188;2022-12-07T09:45:48;6.62;;;4.00;;
31818;SDS011;18384;48.860;9.188;2022-12-07T09:48:26;8.50;;;3.70;;
31818;SDS011;18384;48.860;9.188;2022-12-07T09:51:14;6.70;;;3.72;;
31818;SDS011;18384;48.860;9.188;2022-12-07T09:53:47;7.20;;;4.30;;
31818;SDS011;18384;48.860;9.188;2022-12-07T09:56:15;7.85;;;4.03;;
31818;SDS011;18384;48.860;9.188;2022-12-07T09:58:43;10.43;;;4.57;;
31818;SDS011;18384;48.860;9.188;2022-12-07T10:01:12;7.97;;;4.45;;
31818;SDS011;18384;48.860;9.188;2022-12-07T10:03:51;7.87;;;3.92;;
31818;SDS011;18384;48.860;9.188;2022-12-07T10:06:32;7.03;;;4.72;;
31818;SDS011;18384;48.860;9.188;2022-12-07T10:08:58;9.57;;;4.25;;
31818;SDS011;18384;48.860;9.188;2022-12-07T10:11:24;6.97;;;4.32;;
31818;SDS011;18384;48.860;9.188;2022-12-07T10:13:53;7.12;;;3.83;;
31818;SDS011;18384;48.860;9.188;2022-12-07T10:19:20;8.07;;;4.55;;
31818;SDS011;18384;48.860;9.188;2022-12-07T10:22:03;8.68;;;4.55;;
31818;SDS011;18384;48.860;9.188;2022-12-07T10:24:41;6.87;;;4.35;;
31818;SDS011;18384;48.860;9.188;2022-12-07T10:27:30;8.10;;;4.37;;
31818;SDS011;18384;48.860;9.188;2022-12-07T10:29:57;10.70;;;4.55;;
31818;SDS011;18384;48.860;9.188;2022-12-07T10:32:32;9.00;;;4.87;;
31818;SDS011;18384;48.860;9.188;2022-12-07T10:35:21;7.32;;;4.62;;
31818;SDS011;18384;48.860;9.188;2022-12-07T10:37:56;6.78;;;4.70;;
31818;SDS011;18384;48.860;9.188;2022-12-07T10:40:31;7.82;;;4.35;;
31818;SDS011;18384;48.860;9.188;2022-12-07T10:43:05;6.43;;;4.03;;
31818;SDS011;18384;48.860;9.188;2022-12-07T10:53:32;5.45;;;3.28;;
31818;SDS011;18384;48.860;9.188;2022-12-07T10:56:44;7.93;;;4.62;;
31818;SDS011;18384;48.860;9.188;2022-12-07T11:07:38;5.87;;;4.07;;
31818;SDS011;18384;48.860;9.188;2022-12-07T11:10:55;11.55;;;5.82;;
31818;SDS011;18384;48.860;9.188;2022-12-07T11:13:53;6.60;;;3.90;;
31818;SDS011;18384;48.860;9.188;2022-12-07T11:17:26;6.70;;;4.45;;
31818;SDS011;18384;48.860;9.188;2022-12-07T11:20:43;6.70;;;4.22;;
31818;SDS011;18384;48.860;9.188;2022-12-07T11:23:49;6.80;;;4.57;;
31818;SDS011;18384;48.860;9.188;2022-12-07T11:26:58;8.43;;;4.78;;
31818;SDS011;18384;48.860;9.188;2022-12-07T11:38:48;11.23;;;5.95;;
31818;SDS011;18384;48.860;9.188;2022-12-07T11:41:22;12.30;;;5.57;;
31818;SDS011;18384;48.860;9.188;2022-12-07T11:44:04;10.70;;;6.12;;
31818;SDS011;18384;48.860;9.188;2022-12-07T11:47:06;13.60;;;6.85;;
31818;SDS011;18384;48.860;9.188;2022-12-07T11:50:26;11.50;;;6.12;;
31818;SDS011;18384;48.860;9.188;2022-12-07T11:53:25;13.18;;;7.12;;
31818;SDS011;18384;48.860;9.188;2022-12-07T11:56:19;11.25;;;6.12;;
31818;SDS011;18384;48.860;9.188;2022-12-07T11:58:51;11.00;;;6.25;;
31818;SDS011;18384;48.860;9.188;2022-12-07T12:02:03;12.07;;;6.72;;
31818;SDS011;18384;48.860;9.188;2022-12-07T12:05:19;10.38;;;7.20;;
31818;SDS011;18384;48.860;9.188;2022-12-07T12:07:51;12.27;;;7.55;;
31818;SDS011;18384;48.860;9.188;2022-12-07T12:10:54;14.70;;;6.85;;
31818;SDS011;18384;48.860;9.188;2022-12-07T12:22:41;9.80;;;6.20;;
31818;SDS011;18384;48.860;9.188;2022-12-07T12:25:20;8.25;;;5.62;;
31818;SDS011;18384;48.860;9.188;2022-12-07T12:27:55;9.60;;;6.10;;
31818;SDS011;18384;48.860;9.188;2022-12-07T12:30:34;10.10;;;6.62;;
31818;SDS011;18384;48.860;9.188;2022-12-07T12:33:20;13.48;;;6.68;;
31818;SDS011;18384;48.860;9.188;2022-12-07T12:36:44;9.85;;;6.28;;
31818;SDS011;18384;48.860;9.188;2022-12-07T12:39:12;9.57;;;5.97;;
31818;SDS011;18384;48.860;9.188;2022-12-07T12:45:03;10.95;;;6.35;;
31818;SDS011;18384;48.860;9.188;2022-12-07T12:47:53;12.88;;;6.53;;
31818;SDS011;18384;48.860;9.188;2022-12-07T12:51:06;14.68;;;6.32;;
31818;SDS011;18384;48.860;9.188;2022-12-07T12:54:10;12.02;;;6.85;;
31818;SDS011;18384;48.860;9.188;2022-12-07T13:09:38;12.30;;;6.90;;
31818;SDS011;18384;48.860;9.188;2022-12-07T13:12:13;11.55;;;6.95;;
31818;SDS011;18384;48.860;9.188;2022-12-07T13:24:12;19.40;;;8.35;;
31818;SDS011;18384;48.860;9.188;2022-12-07T13:26:41;14.45;;;8.15;;
31818;SDS011;18384;48.860;9.188;2022-12-07T13:29:14;12.52;;;8.43;;
31818;SDS011;18384;48.860;9.188;2022-12-07T13:31:49;15.57;;;8.20;;
31818;SDS011;18384;48.860;9.188;2022-12-07T13:34:39;13.65;;;8.52;;
31818;SDS011;18384;48.860;9.188;2022-12-07T13:40:17;14.68;;;8.85;;
31818;SDS011;18384;48.860;9.188;2022-12-07T13:42:45;15.00;;;9.80;;
31818;SDS011;18384;48.860;9.188;2022-12-07T13:45:25;14.35;;;9.25;;
31818;SDS011;18384;48.860;9.188;2022-12-07T13:48:21;16.65;;;9.63;;
31818;SDS011;18384;48.860;9.188;2022-12-07T13:51:16;16.42;;;9.98;;
31818;SDS011;18384;48.860;9.188;2022-12-07T13:53:52;14.43;;;8.70;;
31818;SDS011;18384;48.860;9.188;2022-12-07T13:56:35;15.48;;;8.77;;
31818;SDS011;18384;48.860;9.188;2022-12-07T13:59:02;14.93;;;9.90;;
31818;SDS011;18384;48.860;9.188;2022-12-07T14:01:31;24.15;;;10.90;;
31818;SDS011;18384;48.860;9.188;2022-12-07T14:04:19;16.58;;;9.30;;
31818;SDS011;18384;48.860;9.188;2022-12-07T14:07:00;16.70;;;8.55;;
31818;SDS011;18384;48.860;9.188;2022-12-07T14:10:04;17.50;;;9.13;;
31818;SDS011;18384;48.860;9.188;2022-12-07T14:12:32;18.37;;;8.57;;
31818;SDS011;18384;48.860;9.188;2022-12-07T14:15:02;15.20;;;9.45;;
31818;SDS011;18384;48.860;9.188;2022-12-07T14:17:29;17.98;;;9.68;;
31818;SDS011;18384;48.860;9.188;2022-12-07T14:19:56;16.02;;;9.65;;
31818;SDS011;18384;48.860;9.188;2022-12-07T14:22:35;16.10;;;9.35;;
31818;SDS011;18384;48.860;9.188;2022-12-07T14:28:50;17.23;;;9.23;;
31818;SDS011;18384;48.860;9.188;2022-12-07T14:31:17;20.50;;;9.55;;
31818;SDS011;18384;48.860;9.188;2022-12-07T14:33:47;14.75;;;8.82;;
31818;SDS011;18384;48.860;9.188;2022-12-07T14:36:13;19.37;;;9.13;;
31818;SDS011;18384;48.860;9.188;2022-12-07T14:38:40;18.75;;;10.57;;
31818;SDS011;18384;48.860;9.188;2022-12-07T14:43:57;19.23;;;9.70;;
31818;SDS011;18384;48.860;9.188;2022-12-07T14:46:23;28.77;;;12.95;;
31818;SDS011;18384;48.860;9.188;2022-12-07T14:48:49;18.87;;;9.77;;
31818;SDS011;18384;48.860;9.188;2022-12-07T14:51:15;19.15;;;10.65;;
31818;SDS011;18384;48.860;9.188;2022-12-07T14:56:11;21.58;;;10.45;;
31818;SDS011;18384;48.860;9.188;2022-12-07T14:58:37;15.13;;;9.20;;
31818;SDS011;18384;48.860;9.188;2022-12-07T15:01:05;17.10;;;9.77;;
31818;SDS011;18384;48.860;9.188;2022-12-07T15:03:31;15.38;;;9.43;;
31818;SDS011;18384;48.860;9.188;2022-12-07T15:05:59;17.95;;;9.18;;
31818;SDS011;18384;48.860;9.188;2022-12-07T15:08:26;14.40;;;9.38;;
31818;SDS011;18384;48.860;9.188;2022-12-07T15:10:52;19.17;;;8.75;;
31818;SDS011;18384;48.860;9.188;2022-12-07T15:13:18;15.60;;;8.43;;
31818;SDS011;18384;48.860;9.188;2022-12-07T15:16:11;20.02;;;8.98;;
31818;SDS011;18384;48.860;9.188;2022-12-07T15:18:42;16.77;;;9.20;;
31818;SDS011;18384;48.860;9.188;2022-12-07T15:21:15;18.30;;;10.43;;
31818;SDS011;18384;48.860;9.188;2022-12-07T15:23:41;21.20;;;10.10;;
31818;SDS011;18384;48.860;9.188;2022-12-07T15:28:35;15.32;;;9.82;;
31818;SDS011;18384;48.860;9.188;2022-12-07T15:31:01;18.60;;;10.43;;
31818;SDS011;18384;48.860;9.188;2022-12-07T15:33:27;16.37;;;9.95;;
31818;SDS011;18384;48.860;9.188;2022-12-07T15:35:54;18.65;;;10.00;;
31818;SDS011;18384;48.860;9.188;2022-12-07T15:38:20;16.52;;;10.45;;
31818;SDS011;18384;48.860;9.188;2022-12-07T15:40:47;16.45;;;10.18;;
31818;SDS011;18384;48.860;9.188;2022-12-07T15:45:58;23.92;;;15.73;;
31818;SDS011;18384;48.860;9.188;2022-12-07T15:48:24;19.30;;;11.05;;
31818;SDS011;18384;48.860;9.188;2022-12-07T15:50:50;21.48;;;12.25;;
31818;SDS011;18384;48.860;9.188;2022-12-07T15:53:16;16.95;;;10.10;;
31818;SDS011;18384;48.860;9.188;2022-12-07T15:55:43;22.10;;;12.02;;
31818;SDS011;18384;48.860;9.188;2022-12-07T15:58:09;15.95;;;9.90;;
31818;SDS011;18384;48.860;9.188;2022-12-07T16:00:35;21.08;;;10.68;;
31818;SDS011;18384;48.860;9.188;2022-12-07T16:03:01;17.77;;;11.32;;
31818;SDS011;18384;48.860;9.188;2022-12-07T16:05:27;16.30;;;10.13;;
31818;SDS011;18384;48.860;9.188;2022-12-07T16:07:53;20.45;;;10.82;;
31818;SDS011;18384;48.860;9.188;2022-12-07T16:10:19;19.10;;;10.93;;
31818;SDS011;18384;48.860;9.188;2022-12-07T16:12:45;24.52;;;11.55;;
31818;SDS011;18384;48.860;9.188;2022-12-07T16:15:11;22.50;;;11.30;;
31818;SDS011;18384;48.860;9.188;2022-12-07T16:17:38;16.75;;;10.73;;
31818;SDS011;18384;48.860;9.188;2022-12-07T16:20:04;20.60;;;10.75;;
31818;SDS011;18384;48.860;9.188;2022-12-07T16:22:33;19.50;;;11.20;;
31818;SDS011;18384;48.860;9.188;2022-12-07T16:24:59;17.70;;;11.00;;
31818;SDS011;18384;48.860;9.188;2022-12-07T16:27:25;20.50;;;12.18;;
31818;SDS011;18384;48.860;9.188;2022-12-07T16:29:51;18.05;;;10.55;;
31818;SDS011;18384;48.860;9.188;2022-12-07T16:32:17;23.10;;;13.27;;
31818;SDS011;18384;48.860;9.188;2022-12-07T16:34:43;22.50;;;10.82;;
31818;SDS011;18384;48.860;9.188;2022-12-07T16:37:09;17.27;;;9.45;;
31818;SDS011;18384;48.860;9.188;2022-12-07T16:39:35;27.17;;;11.35;;
31818;SDS011;18384;48.860;9.188;2022-12-07T16:42:02;19.17;;;10.05;;
31818;SDS011;18384;48.860;9.188;2022-12-07T16:44:28;16.85;;;9.93;;
31818;SDS011;18384;48.860;9.188;2022-12-07T16:46:55;18.23;;;10.10;;
31818;SDS011;18384;48.860;9.188;2022-12-07T16:49:21;16.42;;;9.38;;
31818;SDS011;18384;48.860;9.188;2022-12-07T16:51:49;17.05;;;9.85;;
31818;SDS011;18384;48.860;9.188;2022-12-07T16:54:16;17.67;;;9.55;;
31818;SDS011;18384;48.860;9.188;2022-12-07T16:56:42;16.98;;;9.43;;
31818;SDS011;18384;48.860;9.188;2022-12-07T16:59:08;26.83;;;10.07;;
31818;SDS011;18384;48.860;9.188;2022-12-07T17:01:34;20.27;;;9.60;;
31818;SDS011;18384;48.860;9.188;2022-12-07T17:04:01;15.73;;;9.55;;
31818;SDS011;18384;48.860;9.188;2022-12-07T17:06:29;16.48;;;9.70;;
31818;SDS011;18384;48.860;9.188;2022-12-07T17:08:56;20.90;;;9.45;;
31818;SDS011;18384;48.860;9.188;2022-12-07T17:11:23;20.33;;;9.52;;
31818;SDS011;18384;48.860;9.188;2022-12-07T17:13:52;15.60;;;8.85;;
31818;SDS011;18384;48.860;9.188;2022-12-07T17:16:37;15.30;;;8.15;;
31818;SDS011;18384;48.860;9.188;2022-12-07T17:19:04;15.15;;;8.18;;